Time;durP1;ratioP1;P1;durP2;ratioP2;P2;SDS_P1;SDS_P2;PMS_P1;PMS_P2;Temp;Humidity;BMP_temperature;BMP_pressure;BME280_temperature;BME280_humidity;BME280_pressure;Samples;Min_cycle;Max_cycle;Signal;HPM_P1;HPM_P2
2023/07/06 00:02:05;;;;;;;3.13;1.60;;;13.10;95.50;;;;;;4857418;29;20080;-82
2023/07/06 00:04:32;;;;;;;3.30;1.85;;;13.10;95.50;;;;;;4849635;29;20048;-82
2023/07/06 00:06:59;;;;;;;3.97;1.80;;;13.10;95.50;;;;;;4841375;29;20096;-82
2023/07/06 00:09:26;;;;;;;4.43;1.50;;;13.20;95.50;;;;;;4879767;29;20053;-82
2023/07/06 00:11:52;;;;;;;4.35;1.92;;;13.20;95.40;;;;;;4849380;29;20057;-82
2023/07/06 00:14:24;;;;;;;4.38;1.70;;;13.20;95.50;;;;;;4849416;29;20053;-81
2023/07/06 00:17:12;;;;;;;2.95;1.40;;;13.20;95.50;;;;;;4864541;29;20518;-81
2023/07/06 00:19:40;;;;;;;3.80;1.80;;;13.20;95.40;;;;;;4879599;29;20055;-82
2023/07/06 00:22:11;;;;;;;3.25;1.52;;;13.20;95.50;;;;;;4879711;29;20478;-82
2023/07/06 00:24:42;;;;;;;3.35;1.48;;;13.20;95.40;;;;;;4877453;29;20056;-82
2023/07/06 00:27:09;;;;;;;4.45;1.48;;;13.20;95.40;;;;;;4879745;29;20041;-82
2023/07/06 00:29:46;;;;;;;3.47;1.60;;;13.30;95.40;;;;;;4862099;29;20144;-82
2023/07/06 00:32:25;;;;;;;3.28;1.60;;;13.30;95.40;;;;;;4861783;29;20490;-82
2023/07/06 00:34:56;;;;;;;2.40;1.23;;;13.30;95.40;;;;;;4892857;29;20056;-82
2023/07/06 00:37:26;;;;;;;3.47;1.38;;;13.40;95.40;;;;;;4868360;29;20490;-81
2023/07/06 00:39:53;;;;;;;2.47;1.10;;;13.40;95.30;;;;;;4855694;29;20405;-82
2023/07/06 00:42:22;;;;;;;4.07;1.83;;;13.40;95.30;;;;;;4877177;29;20098;-82
2023/07/06 00:44:57;;;;;;;3.05;1.42;;;13.40;95.30;;;;;;4885718;29;20086;-82
2023/07/06 00:47:34;;;;;;;3.33;1.50;;;13.50;95.30;;;;;;4879927;29;20406;-82
2023/07/06 00:50:07;;;;;;;3.92;1.48;;;13.40;95.30;;;;;;4877283;29;20052;-82
2023/07/06 00:52:44;;;;;;;2.42;1.30;;;13.50;95.30;;;;;;4866177;29;20176;-82
2023/07/06 00:55:12;;;;;;;2.92;1.40;;;13.50;95.30;;;;;;4889162;29;20064;-82
2023/07/06 00:57:42;;;;;;;3.63;1.42;;;13.50;95.40;;;;;;4881890;29;20071;-82
2023/07/06 01:00:13;;;;;;;3.00;1.52;;;13.50;95.40;;;;;;4885222;29;20049;-82
2023/07/06 01:02:41;;;;;;;4.05;1.75;;;13.50;95.40;;;;;;4883477;29;20045;-82
2023/07/06 01:05:10;;;;;;;2.97;1.52;;;13.50;95.40;;;;;;4874148;29;20148;-82
2023/07/06 01:07:44;;;;;;;2.72;1.40;;;13.40;95.40;;;;;;4881216;29;20100;-82
2023/07/06 01:10:13;;;;;;;4.03;1.60;;;13.40;95.40;;;;;;4863455;29;20057;-82
2023/07/06 01:12:42;;;;;;;2.47;1.30;;;13.40;95.50;;;;;;4876727;29;20465;-81
2023/07/06 01:15:10;;;;;;;3.47;1.65;;;13.40;95.50;;;;;;4877440;29;20045;-82
2023/07/06 01:17:57;;;;;;;3.33;1.80;;;13.40;95.50;;;;;;4859889;29;20056;-82
2023/07/06 01:20:34;;;;;;;4.13;1.85;;;13.40;95.50;;;;;;4883483;29;20053;-82
2023/07/06 01:23:17;;;;;;;5.45;1.73;;;13.30;95.60;;;;;;4876462;29;20084;-82
2023/07/06 01:26:15;;;;;;;5.00;1.45;;;13.30;95.60;;;;;;4885170;29;20221;-82
2023/07/06 01:28:57;;;;;;;3.13;1.52;;;13.30;95.60;;;;;;4869363;29;20139;-82
2023/07/06 01:31:24;;;;;;;;;;;13.20;95.70;;;;;;4869024;29;20053;-82
2023/07/06 01:34:21;;;;;;;2.65;1.25;;;13.20;95.70;;;;;;4892486;29;19962;-82
2023/07/06 01:37:11;;;;;;;2.65;1.17;;;13.10;95.70;;;;;;4865294;29;20152;-82
2023/07/06 01:39:41;;;;;;;2.88;1.27;;;13.10;95.80;;;;;;4862727;29;20049;-82
2023/07/06 01:42:14;;;;;;;2.95;1.40;;;13.00;95.80;;;;;;4865511;29;20110;-82
2023/07/06 01:44:46;;;;;;;1.98;1.20;;;13.00;95.80;;;;;;4870626;29;20096;-83
2023/07/06 01:47:18;;;;;;;4.90;1.65;;;13.00;95.80;;;;;;4870906;29;20480;-83
2023/07/06 01:49:48;;;;;;;3.90;1.48;;;13.00;95.90;;;;;;4881364;29;20509;-82
2023/07/06 01:52:19;;;;;;;2.78;1.50;;;12.90;95.90;;;;;;4878694;29;20417;-82
2023/07/06 01:55:08;;;;;;;3.87;1.47;;;12.90;95.90;;;;;;4890069;29;20409;-83
2023/07/06 01:57:46;;;;;;;3.42;1.85;;;12.90;95.90;;;;;;4885725;29;20383;-82
2023/07/06 02:00:30;;;;;;;3.33;1.55;;;12.90;96.00;;;;;;4864916;29;20048;-83
2023/07/06 02:03:05;;;;;;;2.78;1.05;;;12.80;96.00;;;;;;4875952;29;20053;-82
2023/07/06 02:05:37;;;;;;;3.75;1.58;;;12.80;96.00;;;;;;4877552;29;20045;-83
2023/07/06 02:08:12;;;;;;;3.47;1.48;;;12.80;96.00;;;;;;4880472;29;20102;-82
2023/07/06 02:10:39;;;;;;;3.17;1.58;;;12.80;96.00;;;;;;4865916;29;20041;-82
2023/07/06 02:13:06;;;;;;;4.38;1.50;;;12.80;96.00;;;;;;4865715;29;20115;-82
2023/07/06 02:15:33;;;;;;;2.50;1.35;;;12.90;96.00;;;;;;4879350;29;20048;-82
2023/07/06 02:18:02;;;;;;;4.25;2.13;;;12.80;95.90;;;;;;4878776;29;20064;-82
2023/07/06 02:20:34;;;;;;;3.53;1.50;;;12.90;95.90;;;;;;4849432;29;20042;-82
2023/07/06 02:23:07;;;;;;;3.25;1.67;;;13.00;95.90;;;;;;4882478;29;20041;-82
2023/07/06 02:25:35;;;;;;;6.43;1.70;;;13.00;95.90;;;;;;4872937;29;20501;-82
2023/07/06 02:28:05;;;;;;;3.83;2.15;;;13.00;95.80;;;;;;4861840;29;20116;-82
2023/07/06 02:30:32;;;;;;;4.97;1.73;;;13.10;95.80;;;;;;4881076;29;20052;-82
2023/07/06 02:32:59;;;;;;;3.97;1.73;;;13.10;95.80;;;;;;4896744;29;20449;-83
2023/07/06 02:35:27;;;;;;;4.45;1.90;;;13.10;95.80;;;;;;4868155;29;20055;-82
2023/07/06 02:37:55;;;;;;;3.50;1.48;;;13.20;95.80;;;;;;4896259;29;20052;-82
2023/07/06 02:40:22;;;;;;;3.58;1.92;;;13.20;95.70;;;;;;4835299;29;20049;-82
2023/07/06 02:42:50;;;;;;;3.85;1.92;;;13.20;95.70;;;;;;4843997;29;20053;-81
2023/07/06 02:45:17;;;;;;;3.35;1.67;;;13.30;95.70;;;;;;4828870;29;20105;-82
2023/07/06 02:47:45;;;;;;;4.72;2.25;;;13.30;95.70;;;;;;4813536;29;20053;-83
2023/07/06 02:50:12;;;;;;;6.13;2.40;;;13.30;95.70;;;;;;4824018;29;20050;-82
2023/07/06 02:52:42;;;;;;;3.88;2.15;;;13.40;95.70;;;;;;4845062;29;20065;-82
2023/07/06 02:55:09;;;;;;;3.55;1.83;;;13.40;95.70;;;;;;4852669;29;20149;-82
2023/07/06 02:57:39;;;;;;;3.33;1.80;;;13.40;95.70;;;;;;4811418;29;20059;-82
2023/07/06 03:00:12;;;;;;;3.05;1.77;;;13.50;95.80;;;;;;4839257;29;20050;-82
2023/07/06 03:02:39;;;;;;;4.95;2.08;;;13.50;95.70;;;;;;4845470;29;20466;-83
2023/07/06 03:05:07;;;;;;;3.83;1.85;;;13.50;95.70;;;;;;4834284;29;20050;-82
2023/07/06 03:07:38;;;;;;;4.03;2.05;;;13.50;95.70;;;;;;4835821;29;20494;-82
2023/07/06 03:10:08;;;;;;;4.07;1.73;;;13.50;95.70;;;;;;4840082;29;20109;-82
2023/07/06 03:12:38;;;;;;;4.72;1.80;;;13.50;95.70;;;;;;4826713;29;20053;-82
2023/07/06 03:15:16;;;;;;;3.47;1.77;;;13.50;95.70;;;;;;4824145;29;20512;-82
2023/07/06 03:17:48;;;;;;;6.72;2.00;;;13.50;95.70;;;;;;4847528;29;20063;-82
2023/07/06 03:20:19;;;;;;;4.68;2.22;;;13.50;95.70;;;;;;4853310;29;20057;-82
2023/07/06 03:22:49;;;;;;;3.95;2.45;;;13.50;95.70;;;;;;4847233;29;20136;-82
2023/07/06 03:25:19;;;;;;;2.90;1.77;;;13.50;95.70;;;;;;4831848;29;20049;-82
2023/07/06 03:27:46;;;;;;;3.75;1.88;;;13.50;95.70;;;;;;4858550;29;20778;-82
2023/07/06 03:30:19;;;;;;;3.40;1.85;;;13.50;95.70;;;;;;4849911;29;20049;-82
2023/07/06 03:32:46;;;;;;;4.78;1.50;;;13.50;95.70;;;;;;4853634;29;20148;-82
2023/07/06 03:35:14;;;;;;;3.58;1.60;;;13.60;95.80;;;;;;4844165;29;20045;-82
2023/07/06 03:37:43;;;;;;;3.40;1.63;;;13.50;95.70;;;;;;4863221;29;20049;-82
2023/07/06 03:40:11;;;;;;;4.03;1.90;;;13.60;95.80;;;;;;4819967;29;20133;-82
2023/07/06 03:42:46;;;;;;;5.72;1.60;;;13.50;95.80;;;;;;4836298;29;20041;-82
2023/07/06 03:45:15;;;;;;;3.25;1.45;;;13.50;95.80;;;;;;4838310;29;20050;-83
2023/07/06 03:47:45;;;;;;;3.55;1.73;;;13.60;95.80;;;;;;4844321;29;20045;-82
2023/07/06 03:50:14;;;;;;;4.75;1.80;;;13.60;95.80;;;;;;4846529;29;20416;-82
2023/07/06 03:52:42;;;;;;;4.22;1.83;;;13.60;95.80;;;;;;4863120;29;20417;-82
2023/07/06 03:55:12;;;;;;;3.08;1.35;;;13.60;95.80;;;;;;4849339;29;20053;-83
2023/07/06 03:57:40;;;;;;;2.40;1.27;;;13.60;95.80;;;;;;4845328;29;20049;-82
2023/07/06 04:00:31;;;;;;;2.80;1.63;;;13.60;95.80;;;;;;4860370;29;20528;-82
2023/07/06 04:03:06;;;;;;;3.25;1.35;;;13.50;95.80;;;;;;4844853;29;20136;-82
2023/07/06 04:05:39;;;;;;;3.55;1.35;;;13.50;95.80;;;;;;4850155;29;20097;-82
2023/07/06 04:08:10;;;;;;;2.70;1.25;;;13.60;95.80;;;;;;4844603;29;20054;-82
2023/07/06 04:10:40;;;;;;;3.38;1.40;;;13.60;95.80;;;;;;4856640;29;20144;-82
2023/07/06 04:13:10;;;;;;;1.92;0.93;;;13.60;95.80;;;;;;4860111;29;20414;-82
2023/07/06 04:15:41;;;;;;;2.97;1.00;;;13.60;95.80;;;;;;4830791;29;20049;-82
2023/07/06 04:18:08;;;;;;;3.13;1.40;;;13.60;95.70;;;;;;4862383;29;20044;-82
2023/07/06 04:20:36;;;;;;;1.58;1.08;;;13.70;95.70;;;;;;4839628;29;20809;-82
2023/07/06 04:23:06;;;;;;;4.22;1.40;;;13.70;95.70;;;;;;4845524;29;20116;-82
2023/07/06 04:25:35;;;;;;;4.32;1.60;;;13.70;95.70;;;;;;4851424;29;20047;-82
2023/07/06 04:28:10;;;;;;;4.38;1.33;;;13.80;95.70;;;;;;4846956;29;20102;-82
2023/07/06 04:30:43;;;;;;;5.45;1.48;;;13.80;95.60;;;;;;4863873;29;20501;-82
2023/07/06 04:33:15;;;;;;;3.78;1.38;;;13.80;95.60;;;;;;4835862;29;20058;-82
2023/07/06 04:35:43;;;;;;;2.88;1.25;;;13.90;95.60;;;;;;4841506;29;20050;-82
2023/07/06 04:38:10;;;;;;;3.25;1.02;;;13.90;95.60;;;;;;4827924;29;20562;-82
2023/07/06 04:40:41;;;;;;;2.38;1.10;;;13.90;95.50;;;;;;4845558;29;20053;-82
2023/07/06 04:43:12;;;;;;;3.38;1.20;;;14.00;95.50;;;;;;4856729;29;20045;-82
2023/07/06 04:45:39;;;;;;;2.50;1.10;;;14.00;95.50;;;;;;4836411;29;20049;-82
2023/07/06 04:48:07;;;;;;;4.78;1.17;;;14.00;95.50;;;;;;4818886;29;20049;-83
2023/07/06 04:50:37;;;;;;;2.88;1.00;;;14.00;95.50;;;;;;4804992;29;20057;-82
2023/07/06 04:53:07;;;;;;;3.60;1.13;;;14.10;95.40;;;;;;4844925;29;20517;-82
2023/07/06 04:55:35;;;;;;;6.22;1.08;;;14.10;95.40;;;;;;4849985;29;20048;-82
2023/07/06 04:58:05;;;;;;;2.90;1.38;;;14.10;95.40;;;;;;4851524;29;20056;-82
2023/07/06 05:00:37;;;;;;;4.80;1.58;;;14.10;95.40;;;;;;4858374;29;20041;-83
2023/07/06 05:03:09;;;;;;;3.95;1.58;;;14.20;95.40;;;;;;4845210;29;20049;-83
2023/07/06 05:05:39;;;;;;;6.57;1.83;;;14.10;95.40;;;;;;4830137;29;20118;-82
2023/07/06 05:08:07;;;;;;;2.72;1.17;;;14.10;95.40;;;;;;4844263;29;20418;-82
2023/07/06 05:10:34;;;;;;;3.13;1.60;;;14.20;95.40;;;;;;4848282;29;20570;-82
2023/07/06 05:13:04;;;;;;;5.20;1.45;;;14.20;95.40;;;;;;4820399;29;20409;-83
2023/07/06 05:15:31;;;;;;;4.35;1.38;;;14.20;95.30;;;;;;4838478;29;20053;-82
2023/07/06 05:18:01;;;;;;;5.07;1.65;;;14.20;95.30;;;;;;4838844;29;20503;-82
2023/07/06 05:20:31;;;;;;;4.63;2.05;;;14.30;95.30;;;;;;4838445;29;20089;-82
2023/07/06 05:23:03;;;;;;;3.25;1.75;;;14.30;95.30;;;;;;4835091;29;20391;-82
2023/07/06 05:25:30;;;;;;;7.93;2.00;;;14.30;95.30;;;;;;4830141;29;20108;-83
2023/07/06 05:27:57;;;;;;;5.75;1.98;;;14.40;95.30;;;;;;4829940;29;20471;-83
2023/07/06 05:30:26;;;;;;;5.45;1.83;;;14.40;95.20;;;;;;4840952;29;20059;-82
2023/07/06 05:32:53;;;;;;;7.00;1.98;;;14.40;95.20;;;;;;4834952;29;20513;-83
2023/07/06 05:35:22;;;;;;;4.85;1.85;;;14.40;95.20;;;;;;4841670;29;20057;-83
2023/07/06 05:37:51;;;;;;;6.30;2.15;;;14.40;95.20;;;;;;4846102;29;20109;-82
2023/07/06 05:40:18;;;;;;;5.45;1.90;;;14.50;95.20;;;;;;4893102;29;20049;-83
2023/07/06 05:42:45;;;;;;;4.97;2.10;;;14.60;95.10;;;;;;4856520;29;20045;-82
2023/07/06 05:45:13;;;;;;;8.32;2.33;;;14.60;95.00;;;;;;4878448;29;20144;-83
2023/07/06 05:47:40;;;;;;;6.40;2.22;;;14.70;95.30;;;;;;4878155;29;20045;-83
2023/07/06 05:50:08;;;;;;;7.72;2.58;;;14.80;94.90;;;;;;4872792;29;20139;-82
2023/07/06 05:52:36;;;;;;;5.78;2.65;;;14.90;94.80;;;;;;4893408;29;20057;-82
2023/07/06 05:55:05;;;;;;;6.65;1.80;;;14.90;94.70;;;;;;4871274;29;20071;-83
2023/07/06 05:57:32;;;;;;;6.90;3.08;;;15.00;94.70;;;;;;4877431;29;20057;-83
2023/07/06 05:59:59;;;;;;;7.28;3.22;;;15.00;94.70;;;;;;4888802;29;20505;-83
2023/07/06 06:02:27;;;;;;;9.80;4.55;;;15.10;94.70;;;;;;4857855;29;20060;-82
2023/07/06 06:04:57;;;;;;;5.97;3.13;;;15.10;94.90;;;;;;4866303;29;20048;-83
2023/07/06 06:07:25;;;;;;;11.02;3.95;;;15.10;94.70;;;;;;4895420;29;20037;-82
2023/07/06 06:09:52;;;;;;;9.52;4.13;;;15.10;94.60;;;;;;4865461;29;20557;-83
2023/07/06 06:12:20;;;;;;;10.73;4.20;;;15.20;94.60;;;;;;4854766;29;20169;-83
2023/07/06 06:14:52;;;;;;;9.02;4.50;;;15.10;94.60;;;;;;4864595;29;20058;-82
2023/07/06 06:17:20;;;;;;;11.57;3.92;;;15.10;94.60;;;;;;4855578;29;20045;-83
2023/07/06 06:19:48;;;;;;;10.05;4.22;;;15.10;94.70;;;;;;4875016;29;20100;-83
2023/07/06 06:22:17;;;;;;;6.90;3.42;;;15.10;94.70;;;;;;4877864;29;20045;-82
2023/07/06 06:24:45;;;;;;;6.97;4.10;;;15.20;94.70;;;;;;4875990;29;20104;-83
2023/07/06 06:27:14;;;;;;;6.78;3.17;;;15.30;94.60;;;;;;4850676;29;20044;-83
2023/07/06 06:29:42;;;;;;;7.70;3.65;;;15.40;94.60;;;;;;4893141;29;20076;-83
2023/07/06 06:32:13;;;;;;;7.00;3.28;;;15.50;94.50;;;;;;4877758;29;20049;-83
2023/07/06 06:34:41;;;;;;;8.88;3.45;;;15.70;94.40;;;;;;4862202;29;20065;-83
2023/07/06 06:37:09;;;;;;;5.63;3.22;;;15.80;94.20;;;;;;4862470;29;20493;-83
2023/07/06 06:39:39;;;;;;;12.02;5.93;;;15.90;94.20;;;;;;4870644;29;20057;-83
2023/07/06 06:42:07;;;;;;;13.32;6.00;;;15.90;94.00;;;;;;4862128;29;20049;-83
2023/07/06 06:44:41;;;;;;;9.43;5.25;;;15.90;94.00;;;;;;4862974;29;20120;-83
2023/07/06 06:47:09;;;;;;;9.95;5.07;;;16.00;94.00;;;;;;4885646;29;20155;-83
2023/07/06 06:49:36;;;;;;;9.15;4.28;;;16.00;93.90;;;;;;4849979;29;20056;-83
2023/07/06 06:52:04;;;;;;;11.93;5.93;;;16.00;93.90;;;;;;4881922;29;20063;-83
2023/07/06 06:54:32;;;;;;;12.30;6.78;;;16.10;93.90;;;;;;4884437;29;20063;-83
2023/07/06 06:56:59;;;;;;;14.50;6.30;;;16.10;93.80;;;;;;4867069;29;20057;-83
2023/07/06 06:59:27;;;;;;;15.00;7.40;;;16.20;93.80;;;;;;4850828;29;20057;-83
2023/07/06 07:01:54;;;;;;;12.77;7.28;;;16.20;93.80;;;;;;4850503;29;20414;-84
2023/07/06 07:04:22;;;;;;;12.55;7.22;;;16.30;93.70;;;;;;4883131;29;20494;-83
2023/07/06 07:06:49;;;;;;;13.77;7.10;;;16.40;93.70;;;;;;4861399;29;20105;-83
2023/07/06 07:09:17;;;;;;;14.27;8.77;;;16.40;93.60;;;;;;4861018;29;20445;-84
2023/07/06 07:11:45;;;;;;;11.68;7.55;;;16.40;93.60;;;;;;4881480;29;20053;-84
2023/07/06 07:14:15;;;;;;;9.43;6.32;;;16.50;93.60;;;;;;4875798;29;20052;-83
2023/07/06 07:16:42;;;;;;;13.52;7.93;;;16.60;93.50;;;;;;4865420;29;20053;-83
2023/07/06 07:19:13;;;;;;;12.30;7.50;;;16.70;93.40;;;;;;4865250;29;20472;-83
2023/07/06 07:21:40;;;;;;;12.20;6.63;;;16.80;93.40;;;;;;4857747;29;20093;-84
2023/07/06 07:24:08;;;;;;;11.98;6.72;;;16.90;93.30;;;;;;4887689;29;20093;-84
2023/07/06 07:26:39;;;;;;;14.82;8.75;;;17.10;93.20;;;;;;4868384;29;20053;-84
2023/07/06 07:29:06;;;;;;;14.50;8.80;;;17.10;93.00;;;;;;4882374;29;20057;-84
2023/07/06 07:31:33;;;;;;;14.77;8.88;;;17.00;93.00;;;;;;4883804;29;20083;-84
2023/07/06 07:34:00;;;;;;;11.10;7.32;;;16.90;93.20;;;;;;4883983;29;20048;-84
2023/07/06 07:36:29;;;;;;;13.60;8.30;;;17.00;93.20;;;;;;4865494;29;20549;-84
2023/07/06 07:38:57;;;;;;;13.45;7.20;;;17.10;93.00;;;;;;4871666;29;20620;-84
2023/07/06 07:41:25;;;;;;;12.68;6.75;;;17.30;92.90;;;;;;4898228;29;20050;-84
2023/07/06 07:43:53;;;;;;;12.68;6.97;;;17.40;92.70;;;;;;4897095;29;20049;-84
2023/07/06 07:46:20;;;;;;;10.35;6.60;;;17.50;92.70;;;;;;4898963;29;20043;-84
2023/07/06 07:48:53;;;;;;;9.38;5.63;;;17.50;92.60;;;;;;4875096;29;20049;-88
2023/07/06 07:51:23;;;;;;;12.05;7.97;;;17.60;92.60;;;;;;4885217;29;20055;-88
2023/07/06 07:53:53;;;;;;;9.15;6.35;;;17.60;92.50;;;;;;4871959;29;20068;-88
2023/07/06 07:56:26;;;;;;;12.95;7.00;;;17.70;92.60;;;;;;4886799;29;20055;-89
2023/07/06 07:58:56;;;;;;;12.15;7.55;;;17.80;92.40;;;;;;4880930;29;20502;-87
2023/07/06 08:01:24;;;;;;;13.20;8.10;;;17.70;92.50;;;;;;4883038;29;20053;-88
2023/07/06 08:03:54;;;;;;;10.80;6.80;;;17.70;92.40;;;;;;4878602;29;20041;-82
2023/07/06 08:06:22;;;;;;;10.30;6.50;;;17.70;92.50;;;;;;4883710;29;20112;-83
2023/07/06 08:08:50;;;;;;;10.93;7.35;;;17.90;92.30;;;;;;4884333;29;20037;-88
2023/07/06 08:11:21;;;;;;;9.13;6.50;;;18.00;92.20;;;;;;4897112;29;20112;-83
2023/07/06 08:13:53;;;;;;;10.40;6.55;;;18.00;92.00;;;;;;4884311;29;20049;-84
2023/07/06 08:16:22;;;;;;;8.80;6.15;;;18.00;92.10;;;;;;4895261;29;20036;-83
2023/07/06 08:18:55;;;;;;;9.38;5.97;;;18.10;92.00;;;;;;4865017;29;20052;-86
2023/07/06 08:21:42;;;;;;;10.05;6.40;;;18.30;92.00;;;;;;4889214;29;20144;-87
2023/07/06 08:24:29;;;;;;;10.52;6.85;;;18.60;91.80;;;;;;4886190;29;20135;-83
2023/07/06 08:27:01;;;;;;;8.98;5.45;;;18.70;91.60;;;;;;4882989;29;20425;-88
2023/07/06 08:29:28;;;;;;;8.82;5.85;;;18.80;91.60;;;;;;4887411;29;20049;-83
2023/07/06 08:31:56;;;;;;;7.70;5.35;;;18.70;91.50;;;;;;4885769;29;20057;-83
2023/07/06 08:34:28;;;;;;;8.35;5.85;;;18.80;91.40;;;;;;4856185;29;20055;-82
2023/07/06 08:36:55;;;;;;;;;;;18.80;91.70;;;;;;4878656;29;20053;-84
2023/07/06 08:39:26;;;;;;;7.93;5.20;;;18.90;91.40;;;;;;4869606;29;19931;-84
2023/07/06 08:41:55;;;;;;;9.55;6.38;;;19.00;91.40;;;;;;4864269;29;20470;-84
2023/07/06 08:44:25;;;;;;;11.18;7.13;;;19.00;91.00;;;;;;4898061;29;20076;-85
2023/07/06 08:46:54;;;;;;;12.60;7.45;;;18.70;91.00;;;;;;4878142;29;20045;-83
2023/07/06 08:49:32;;;;;;;12.40;7.03;;;18.60;91.00;;;;;;4862004;29;20040;-83
2023/07/06 08:52:05;;;;;;;10.40;6.80;;;18.70;91.00;;;;;;4886126;29;20069;-83
2023/07/06 08:54:36;;;;;;;10.50;6.88;;;18.80;90.90;;;;;;4892569;29;20135;-83
2023/07/06 08:57:15;;;;;;;10.48;6.28;;;18.90;90.70;;;;;;4862735;29;20055;-87
2023/07/06 08:59:48;;;;;;;9.88;6.35;;;18.90;90.60;;;;;;4865647;29;20052;-88
2023/07/06 09:02:22;;;;;;;8.80;6.20;;;19.00;90.70;;;;;;4865714;29;20051;-88
2023/07/06 09:04:51;;;;;;;9.95;6.38;;;19.20;90.50;;;;;;4878884;29;20045;-83
2023/07/06 09:07:46;;;;;;;9.20;6.32;;;19.40;90.00;;;;;;4873861;29;20057;-88
2023/07/06 09:10:17;;;;;;;8.98;6.68;;;19.50;89.70;;;;;;4869773;29;20048;-83
2023/07/06 09:12:53;;;;;;;10.50;7.80;;;19.50;89.30;;;;;;4894195;29;20051;-87
2023/07/06 09:15:33;;;;;;;9.85;6.28;;;19.40;88.90;;;;;;4870004;29;20049;-82
2023/07/06 09:18:04;;;;;;;;;;;19.40;89.80;;;;;;4864056;29;20044;-84
2023/07/06 09:20:34;;;;;;;12.45;6.70;;;19.40;88.10;;;;;;4863112;29;19923;-83
2023/07/06 09:23:05;;;;;;;8.77;5.68;;;19.20;88.00;;;;;;4880280;29;20134;-83
2023/07/06 09:25:35;;;;;;;;;;;19.20;88.30;;;;;;4883965;29;20071;-89
2023/07/06 09:28:07;;;;;;;8.00;4.90;;;19.20;88.80;;;;;;4897906;29;19927;-83
2023/07/06 09:30:39;;;;;;;7.18;4.38;;;19.40;88.70;;;;;;4874047;29;20072;-85
2023/07/06 09:33:18;;;;;;;6.95;4.18;;;19.60;88.50;;;;;;4877185;29;20052;-82
2023/07/06 09:35:50;;;;;;;7.72;4.47;;;19.80;88.00;;;;;;4888938;29;20056;-82
2023/07/06 09:38:20;;;;;;;10.23;5.18;;;20.00;87.80;;;;;;4890861;29;20188;-82
2023/07/06 09:40:48;;;;;;;10.00;6.50;;;20.10;86.80;;;;;;4858825;29;20052;-82
2023/07/06 09:43:24;;;;;;;10.10;6.05;;;20.10;86.00;;;;;;4800048;29;20073;-83
2023/07/06 09:45:54;;;;;;;10.80;5.35;;;20.00;85.60;;;;;;4844339;29;20041;-83
2023/07/06 09:48:30;;;;;;;7.53;4.97;;;19.90;85.50;;;;;;4820071;29;20403;-82
2023/07/06 09:51:14;;;;;;;7.43;5.13;;;19.90;85.80;;;;;;4830529;29;20049;-87
2023/07/06 09:53:48;;;;;;;5.65;3.35;;;20.20;85.60;;;;;;4829266;29;20063;-83
2023/07/06 09:56:16;;;;;;;8.73;4.25;;;20.60;85.80;;;;;;4828964;29;20106;-82
2023/07/06 09:58:45;;;;;;;9.13;3.65;;;20.80;84.60;;;;;;4814332;29;20137;-87
2023/07/06 10:01:31;;;;;;;6.28;3.42;;;21.00;84.00;;;;;;4829495;29;20053;-83
2023/07/06 10:04:35;;;;;;;5.50;3.97;;;21.10;83.10;;;;;;4841583;29;20045;-81
2023/07/06 10:07:11;;;;;;;5.97;3.42;;;21.10;83.00;;;;;;4869932;29;20128;-82
2023/07/06 10:09:44;;;;;;;9.10;3.50;;;21.30;83.00;;;;;;4846530;29;20054;-81
2023/07/06 10:12:26;;;;;;;6.20;3.45;;;21.40;82.70;;;;;;4849573;29;20049;-82
2023/07/06 10:14:54;;;;;;;5.63;3.25;;;21.50;82.70;;;;;;4842562;29;20054;-82
2023/07/06 10:17:34;;;;;;;6.57;3.28;;;21.30;82.80;;;;;;4823839;29;20049;-82
2023/07/06 10:20:25;;;;;;;6.00;3.60;;;21.30;82.70;;;;;;4842148;29;20049;-81
2023/07/06 10:23:21;;;;;;;6.87;3.50;;;21.10;82.20;;;;;;4857715;29;20101;-82
2023/07/06 10:26:26;;;;;;;5.60;3.35;;;21.00;82.60;;;;;;4852255;29;20302;-82
2023/07/06 10:29:09;;;;;;;5.63;2.95;;;21.00;82.30;;;;;;4874187;29;20044;-82
2023/07/06 10:31:51;;;;;;;4.65;2.47;;;20.90;83.00;;;;;;4853253;29;20128;-81
2023/07/06 10:34:32;;;;;;;4.25;2.60;;;20.90;83.10;;;;;;4862516;29;20502;-82
2023/07/06 10:37:02;;;;;;;;;;;21.10;83.10;;;;;;4873518;29;20053;-84
2023/07/06 10:39:30;;;;;;;6.72;3.65;;;21.30;82.10;;;;;;4854818;29;19939;-82
2023/07/06 10:42:01;;;;;;;7.88;4.25;;;21.50;80.80;;;;;;4870023;29;20063;-83
2023/07/06 10:44:44;;;;;;;7.43;3.83;;;21.60;79.60;;;;;;4872976;29;20053;-82
2023/07/06 10:47:36;;;;;;;4.40;3.08;;;21.80;78.90;;;;;;4870274;29;20044;-88
2023/07/06 10:50:32;;;;;;;4.47;2.80;;;22.00;78.80;;;;;;4858456;29;20061;-84
2023/07/06 10:53:17;;;;;;;6.40;2.42;;;22.00;78.20;;;;;;4872582;29;21307;-84
2023/07/06 10:56:06;;;;;;;3.88;2.50;;;21.90;78.60;;;;;;4856504;29;20049;-86
2023/07/06 10:58:51;;;;;;;5.53;2.75;;;22.00;78.40;;;;;;4877762;29;20119;-88
2023/07/06 11:01:19;;;;;;;4.10;2.17;;;22.20;78.20;;;;;;4872521;29;20052;-87
2023/07/06 11:03:47;;;;;;;4.55;2.13;;;22.50;77.70;;;;;;4856140;29;20045;-85
2023/07/06 11:06:44;;;;;;;4.22;2.28;;;22.70;77.30;;;;;;4874740;29;20056;-87
2023/07/06 11:09:16;;;;;;;4.30;1.95;;;22.80;77.10;;;;;;4874214;29;20101;-85
2023/07/06 11:12:04;;;;;;;2.78;1.60;;;22.90;77.50;;;;;;4859905;29;20080;-86
2023/07/06 11:14:33;;;;;;;4.90;2.17;;;23.20;76.50;;;;;;4856194;29;20084;-87
2023/07/06 11:17:10;;;;;;;5.55;2.08;;;23.40;75.40;;;;;;4855291;29;20052;-83
2023/07/06 11:19:43;;;;;;;4.55;2.15;;;23.40;74.50;;;;;;4857039;29;20073;-84
2023/07/06 11:22:18;;;;;;;4.97;2.08;;;23.30;73.90;;;;;;4852942;29;20068;-82
2023/07/06 11:24:49;;;;;;;3.85;2.40;;;23.00;73.80;;;;;;4861327;29;20049;-80
2023/07/06 11:27:30;;;;;;;3.70;1.80;;;22.80;74.30;;;;;;4873452;29;20066;-82
2023/07/06 11:30:14;;;;;;;3.38;1.20;;;22.90;74.10;;;;;;4856626;29;20053;-81
2023/07/06 11:32:55;;;;;;;4.50;1.80;;;23.20;74.00;;;;;;4858345;29;20049;-82
2023/07/06 11:35:48;;;;;;;3.43;1.37;;;23.50;72.60;;;;;;4860547;29;20053;-82
2023/07/06 11:38:48;;;;;;;3.33;1.65;;;23.80;71.70;;;;;;4864421;29;20673;-81
2023/07/06 11:41:27;;;;;;;3.30;1.42;;;24.00;70.70;;;;;;4892813;29;20115;-82
2023/07/06 11:44:03;;;;;;;3.72;1.67;;;23.90;71.00;;;;;;4883502;29;20516;-83
2023/07/06 11:46:41;;;;;;;3.60;1.60;;;23.90;71.10;;;;;;4888077;29;20606;-81
2023/07/06 11:49:22;;;;;;;2.83;1.73;;;23.90;71.20;;;;;;4892120;29;20085;-82
2023/07/06 11:51:50;;;;;;;4.25;1.60;;;23.90;69.80;;;;;;4906445;29;20076;-82
2023/07/06 11:57:24;;;;;;;5.50;2.03;;;24.10;69.80;;;;;;4888476;29;20523;-82
2023/07/06 12:00:16;;;;;;;2.90;1.92;;;23.80;69.30;;;;;;4903517;29;20524;-81
2023/07/06 12:02:59;;;;;;;2.80;1.67;;;23.60;69.90;;;;;;4887981;29;20052;-85
2023/07/06 12:05:42;;;;;;;4.63;1.77;;;24.10;69.60;;;;;;4872733;29;20055;-87
2023/07/06 12:08:35;;;;;;;;;;;24.60;68.10;;;;;;4879270;29;20100;-93
2023/07/06 12:11:19;;;;;;;4.55;1.95;;;24.80;68.00;;;;;;4894418;29;20387;-87
2023/07/06 12:13:56;;;;;;;6.47;2.03;;;24.60;65.60;;;;;;4868056;29;20553;-85
2023/07/06 12:16:41;;;;;;;5.05;2.03;;;24.00;65.70;;;;;;4872115;29;20051;-84
2023/07/06 12:19:18;;;;;;;5.50;2.10;;;23.60;66.60;;;;;;4879616;29;20218;-85
2023/07/06 12:21:52;;;;;;;5.30;2.40;;;23.10;66.10;;;;;;4872317;29;20047;-84
2023/07/06 12:24:25;;;;;;;3.10;2.08;;;22.70;66.80;;;;;;4888665;29;20162;-83
2023/07/06 12:26:59;;;;;;;5.60;2.40;;;22.40;66.40;;;;;;4868298;29;20466;-90
2023/07/06 12:29:35;;;;;;;4.53;2.22;;;22.10;67.30;;;;;;4874060;29;20910;-86
2023/07/06 12:32:22;;;;;;;4.13;2.25;;;21.90;67.80;;;;;;4872131;29;20086;-82
2023/07/06 12:34:53;;;;;;;5.28;2.80;;;21.80;68.60;;;;;;4882405;29;20045;-89
2023/07/06 12:37:24;;;;;;;5.70;2.40;;;21.70;68.30;;;;;;4870845;29;20060;-89
2023/07/06 12:39:52;;;;;;;4.93;2.22;;;21.60;68.50;;;;;;4872729;29;20072;-86
2023/07/06 12:42:21;;;;;;;4.82;2.30;;;21.50;68.50;;;;;;4872379;29;20080;-85
2023/07/06 12:44:50;;;;;;;3.10;2.42;;;21.40;68.70;;;;;;4870173;29;20162;-87
2023/07/06 12:47:31;;;;;;;4.75;2.30;;;21.30;68.70;;;;;;4874507;29;20052;-92
2023/07/06 12:50:08;;;;;;;4.25;2.38;;;21.30;68.90;;;;;;4873349;29;20148;-87
2023/07/06 12:52:42;;;;;;;5.00;2.63;;;21.20;69.10;;;;;;4890634;29;20100;-84
2023/07/06 12:55:21;;;;;;;4.70;3.00;;;21.10;70.00;;;;;;4890283;29;20049;-84
2023/07/06 12:57:49;;;;;;;6.22;3.30;;;21.00;69.40;;;;;;4874015;29;20044;-86
2023/07/06 13:00:23;;;;;;;4.55;2.10;;;20.80;69.70;;;;;;4876609;29;20135;-88
2023/07/06 13:02:58;;;;;;;5.28;2.75;;;20.70;70.50;;;;;;4876063;29;20131;-90
2023/07/06 13:05:31;;;;;;;5.50;2.63;;;20.60;71.10;;;;;;4869795;29;20049;-83
2023/07/06 13:08:08;;;;;;;2.50;1.83;;;20.40;71.60;;;;;;4868561;29;20044;-85
2023/07/06 13:10:48;;;;;;;3.13;1.85;;;20.30;72.10;;;;;;4877918;29;20433;-85
2023/07/06 13:13:31;;;;;;;2.90;1.50;;;20.40;72.50;;;;;;4864167;29;20135;-86
2023/07/06 13:16:05;;;;;;;4.07;1.70;;;20.40;72.70;;;;;;4864915;29;20424;-87
2023/07/06 13:18:37;;;;;;;3.45;1.20;;;20.60;72.80;;;;;;4872249;29;20151;-84
2023/07/06 13:21:14;;;;;;;2.05;1.20;;;20.80;72.70;;;;;;4856868;29;20785;-84